Wilna, New York
Current Conditions -  °F | °C
As of 2:58 PM on Friday 31 Oct 2014 (Local Time) from KGTB Reporting Station
Few Clouds Few Clouds  
Wind Chill: 43°   Ceiling: Unl
Heat Index: 46°   Visibility: 10mi
Dew Point: 33°   Wind: 6mph
Humidity: 61%   Direction: 60°ENE
Pressure: 29.97"   Gusts: NA
Location:  43.9769°N, 75.558°W
Report Text: KGTB 311858Z AUTO 06005KT 10SM FEW043 08/01 A2997 RMK AO2 SLP155 T00780006
Loading
Personal Weather Stations






























Interactive Weather Map
Tropical Storm Tracking
New forecast layout! Learn more

10-Day Weather Forecast

Advertisements
Track Severe Weather on mobile